sensor_id;sensor_type;location;lat;lon;timestamp;temperature;humidity
816;DHT22;25928;51.062;13.752;2023-05-31T00:00:16;15.90;99.90
816;DHT22;25928;51.062;13.752;2023-05-31T00:02:41;15.80;99.90
816;DHT22;25928;51.062;13.752;2023-05-31T00:05:08;15.80;99.90
816;DHT22;25928;51.062;13.752;2023-05-31T00:07:33;15.80;99.90
816;DHT22;25928;51.062;13.752;2023-05-31T00:09:59;15.80;99.90
816;DHT22;25928;51.062;13.752;2023-05-31T00:12:24;15.80;99.90
816;DHT22;25928;51.062;13.752;2023-05-31T00:14:50;15.80;99.90
816;DHT22;25928;51.062;13.752;2023-05-31T00:17:16;15.70;99.90
816;DHT22;25928;51.062;13.752;2023-05-31T00:19:41;15.60;99.90
816;DHT22;25928;51.062;13.752;2023-05-31T00:22:07;15.50;99.90
816;DHT22;25928;51.062;13.752;2023-05-31T00:24:33;15.50;99.90
816;DHT22;25928;51.062;13.752;2023-05-31T00:26:58;15.40;99.90
816;DHT22;25928;51.062;13.752;2023-05-31T00:29:24;15.40;99.90
816;DHT22;25928;51.062;13.752;2023-05-31T00:31:51;15.30;99.90
816;DHT22;25928;51.062;13.752;2023-05-31T00:34:16;15.30;99.90
816;DHT22;25928;51.062;13.752;2023-05-31T00:36:42;15.20;99.90
816;DHT22;25928;51.062;13.752;2023-05-31T00:39:08;15.10;99.90
816;DHT22;25928;51.062;13.752;2023-05-31T00:41:33;15.00;99.90
816;DHT22;25928;51.062;13.752;2023-05-31T00:43:59;15.10;99.90
816;DHT22;25928;51.062;13.752;2023-05-31T00:46:30;15.00;99.90
816;DHT22;25928;51.062;13.752;2023-05-31T00:48:56;15.00;99.90
816;DHT22;25928;51.062;13.752;2023-05-31T00:51:24;14.90;99.90
816;DHT22;25928;51.062;13.752;2023-05-31T00:53:51;14.90;99.90
816;DHT22;25928;51.062;13.752;2023-05-31T00:56:18;14.90;99.90
816;DHT22;25928;51.062;13.752;2023-05-31T00:58:44;14.90;99.90
816;DHT22;25928;51.062;13.752;2023-05-31T01:01:12;14.80;99.90
816;DHT22;25928;51.062;13.752;2023-05-31T01:03:40;14.80;99.90
816;DHT22;25928;51.062;13.752;2023-05-31T01:06:06;14.70;99.90
816;DHT22;25928;51.062;13.752;2023-05-31T01:08:33;14.70;99.90
816;DHT22;25928;51.062;13.752;2023-05-31T01:11:09;14.70;99.90
816;DHT22;25928;51.062;13.752;2023-05-31T01:13:44;14.70;99.90
816;DHT22;25928;51.062;13.752;2023-05-31T01:16:28;14.60;99.90
816;DHT22;25928;51.062;13.752;2023-05-31T01:19:01;14.60;99.90
816;DHT22;25928;51.062;13.752;2023-05-31T01:21:52;14.60;99.90
816;DHT22;25928;51.062;13.752;2023-05-31T01:24:31;14.60;99.90
816;DHT22;25928;51.062;13.752;2023-05-31T01:27:00;14.60;99.90
816;DHT22;25928;51.062;13.752;2023-05-31T01:29:27;14.50;99.90
816;DHT22;25928;51.062;13.752;2023-05-31T01:31:55;14.40;99.90
816;DHT22;25928;51.062;13.752;2023-05-31T01:34:22;14.40;99.90
816;DHT22;25928;51.062;13.752;2023-05-31T01:36:48;14.30;99.90
816;DHT22;25928;51.062;13.752;2023-05-31T01:39:15;14.30;99.90
816;DHT22;25928;51.062;13.752;2023-05-31T01:41:42;14.20;99.90
816;DHT22;25928;51.062;13.752;2023-05-31T01:44:09;14.30;99.90
816;DHT22;25928;51.062;13.752;2023-05-31T01:46:37;14.30;99.90
816;DHT22;25928;51.062;13.752;2023-05-31T01:49:02;14.20;99.90
816;DHT22;25928;51.062;13.752;2023-05-31T01:51:30;14.20;99.90
816;DHT22;25928;51.062;13.752;2023-05-31T01:53:57;14.20;99.90
816;DHT22;25928;51.062;13.752;2023-05-31T01:56:24;14.10;99.90
816;DHT22;25928;51.062;13.752;2023-05-31T01:58:51;14.10;99.90
816;DHT22;25928;51.062;13.752;2023-05-31T02:01:18;14.00;99.90
816;DHT22;25928;51.062;13.752;2023-05-31T02:03:44;14.10;99.90
816;DHT22;25928;51.062;13.752;2023-05-31T02:06:10;14.10;99.90
816;DHT22;25928;51.062;13.752;2023-05-31T02:08:39;14.10;99.90
816;DHT22;25928;51.062;13.752;2023-05-31T02:11:09;14.00;99.90
816;DHT22;25928;51.062;13.752;2023-05-31T02:13:35;13.90;99.90
816;DHT22;25928;51.062;13.752;2023-05-31T02:16:01;13.90;99.90
816;DHT22;25928;51.062;13.752;2023-05-31T02:18:29;13.90;99.90
816;DHT22;25928;51.062;13.752;2023-05-31T02:20:55;13.90;99.90
816;DHT22;25928;51.062;13.752;2023-05-31T02:23:21;13.80;99.90
816;DHT22;25928;51.062;13.752;2023-05-31T02:25:48;13.70;99.90
816;DHT22;25928;51.062;13.752;2023-05-31T02:28:14;13.60;99.90
816;DHT22;25928;51.062;13.752;2023-05-31T02:30:40;13.60;99.90
816;DHT22;25928;51.062;13.752;2023-05-31T02:33:06;13.60;99.90
816;DHT22;25928;51.062;13.752;2023-05-31T02:35:33;13.60;99.90
816;DHT22;25928;51.062;13.752;2023-05-31T02:37:58;13.50;99.90
816;DHT22;25928;51.062;13.752;2023-05-31T02:40:24;13.50;99.90
816;DHT22;25928;51.062;13.752;2023-05-31T02:42:50;13.50;99.90
816;DHT22;25928;51.062;13.752;2023-05-31T02:45:16;13.40;99.90
816;DHT22;25928;51.062;13.752;2023-05-31T02:47:41;13.40;99.90
816;DHT22;25928;51.062;13.752;2023-05-31T02:50:08;13.30;99.90
816;DHT22;25928;51.062;13.752;2023-05-31T02:52:37;13.20;99.90
816;DHT22;25928;51.062;13.752;2023-05-31T02:55:04;13.20;99.90
816;DHT22;25928;51.062;13.752;2023-05-31T02:57:30;13.30;99.90
816;DHT22;25928;51.062;13.752;2023-05-31T02:59:58;13.30;99.90
816;DHT22;25928;51.062;13.752;2023-05-31T03:02:23;13.30;99.90
816;DHT22;25928;51.062;13.752;2023-05-31T03:04:50;13.30;99.90
816;DHT22;25928;51.062;13.752;2023-05-31T03:07:16;13.20;99.90
816;DHT22;25928;51.062;13.752;2023-05-31T03:09:42;13.20;1.00
816;DHT22;25928;51.062;13.752;2023-05-31T03:12:08;13.20;1.00
816;DHT22;25928;51.062;13.752;2023-05-31T03:14:33;13.30;1.00
816;DHT22;25928;51.062;13.752;2023-05-31T03:16:59;13.30;1.00
816;DHT22;25928;51.062;13.752;2023-05-31T03:19:26;13.40;1.00
816;DHT22;25928;51.062;13.752;2023-05-31T03:21:52;13.30;1.00
816;DHT22;25928;51.062;13.752;2023-05-31T03:24:17;13.30;1.00
816;DHT22;25928;51.062;13.752;2023-05-31T03:26:43;13.30;1.00
816;DHT22;25928;51.062;13.752;2023-05-31T03:29:10;13.40;1.00
816;DHT22;25928;51.062;13.752;2023-05-31T03:31:35;13.50;1.00
816;DHT22;25928;51.062;13.752;2023-05-31T03:34:01;13.70;1.00
816;DHT22;25928;51.062;13.752;2023-05-31T03:36:26;13.80;99.90
816;DHT22;25928;51.062;13.752;2023-05-31T03:38:52;14.00;99.90
816;DHT22;25928;51.062;13.752;2023-05-31T03:41:18;14.20;99.90
816;DHT22;25928;51.062;13.752;2023-05-31T03:43:43;14.40;99.90
816;DHT22;25928;51.062;13.752;2023-05-31T03:46:09;14.30;99.90
816;DHT22;25928;51.062;13.752;2023-05-31T03:48:35;14.20;99.90
816;DHT22;25928;51.062;13.752;2023-05-31T03:51:00;14.00;99.90
816;DHT22;25928;51.062;13.752;2023-05-31T03:53:26;13.80;99.90
816;DHT22;25928;51.062;13.752;2023-05-31T03:55:52;13.80;99.90
816;DHT22;25928;51.062;13.752;2023-05-31T03:58:18;13.70;99.90
816;DHT22;25928;51.062;13.752;2023-05-31T04:00:44;13.70;99.90
816;DHT22;25928;51.062;13.752;2023-05-31T04:03:10;13.60;99.90
816;DHT22;25928;51.062;13.752;2023-05-31T04:05:39;13.50;99.90
816;DHT22;25928;51.062;13.752;2023-05-31T04:08:05;13.60;99.90
816;DHT22;25928;51.062;13.752;2023-05-31T04:10:32;13.60;99.90
816;DHT22;25928;51.062;13.752;2023-05-31T04:12:58;13.50;99.90
816;DHT22;25928;51.062;13.752;2023-05-31T04:15:23;13.60;99.90
816;DHT22;25928;51.062;13.752;2023-05-31T04:17:50;13.60;99.90
816;DHT22;25928;51.062;13.752;2023-05-31T04:20:15;13.60;99.90
816;DHT22;25928;51.062;13.752;2023-05-31T04:22:44;13.60;99.90
816;DHT22;25928;51.062;13.752;2023-05-31T04:25:10;13.70;99.90
816;DHT22;25928;51.062;13.752;2023-05-31T04:27:38;13.70;99.90
816;DHT22;25928;51.062;13.752;2023-05-31T04:30:07;13.80;99.90
816;DHT22;25928;51.062;13.752;2023-05-31T04:32:34;13.90;99.90
816;DHT22;25928;51.062;13.752;2023-05-31T04:35:03;14.00;99.90
816;DHT22;25928;51.062;13.752;2023-05-31T04:37:30;14.10;99.90
816;DHT22;25928;51.062;13.752;2023-05-31T04:39:56;14.10;99.90
816;DHT22;25928;51.062;13.752;2023-05-31T04:42:23;14.10;99.90
816;DHT22;25928;51.062;13.752;2023-05-31T04:44:52;14.20;99.90
816;DHT22;25928;51.062;13.752;2023-05-31T04:47:23;14.20;99.90
816;DHT22;25928;51.062;13.752;2023-05-31T04:49:49;14.30;99.90
816;DHT22;25928;51.062;13.752;2023-05-31T04:52:16;14.30;99.90
816;DHT22;25928;51.062;13.752;2023-05-31T04:54:42;14.50;99.90
816;DHT22;25928;51.062;13.752;2023-05-31T04:57:08;14.50;99.90
816;DHT22;25928;51.062;13.752;2023-05-31T04:59:33;14.60;99.90
816;DHT22;25928;51.062;13.752;2023-05-31T05:02:00;14.50;99.90
816;DHT22;25928;51.062;13.752;2023-05-31T05:04:26;14.60;99.90
816;DHT22;25928;51.062;13.752;2023-05-31T05:06:51;14.60;99.90
816;DHT22;25928;51.062;13.752;2023-05-31T05:09:17;14.70;99.90
816;DHT22;25928;51.062;13.752;2023-05-31T05:11:42;14.80;99.90
816;DHT22;25928;51.062;13.752;2023-05-31T05:14:09;14.80;99.90
816;DHT22;25928;51.062;13.752;2023-05-31T05:16:34;15.00;99.90
816;DHT22;25928;51.062;13.752;2023-05-31T05:19:00;15.20;99.90
816;DHT22;25928;51.062;13.752;2023-05-31T05:21:26;15.20;99.90
816;DHT22;25928;51.062;13.752;2023-05-31T05:23:51;15.20;99.90
816;DHT22;25928;51.062;13.752;2023-05-31T05:26:17;15.40;99.90
816;DHT22;25928;51.062;13.752;2023-05-31T05:28:43;15.50;99.90
816;DHT22;25928;51.062;13.752;2023-05-31T05:31:08;15.50;99.90
816;DHT22;25928;51.062;13.752;2023-05-31T05:33:34;15.70;99.90
816;DHT22;25928;51.062;13.752;2023-05-31T05:36:00;15.80;99.90
816;DHT22;25928;51.062;13.752;2023-05-31T05:38:27;15.70;99.90
816;DHT22;25928;51.062;13.752;2023-05-31T05:40:53;15.90;99.90
816;DHT22;25928;51.062;13.752;2023-05-31T05:43:18;16.10;99.90
816;DHT22;25928;51.062;13.752;2023-05-31T05:45:44;16.00;99.90
816;DHT22;25928;51.062;13.752;2023-05-31T05:48:09;16.10;99.90
816;DHT22;25928;51.062;13.752;2023-05-31T05:50:35;16.20;99.90
816;DHT22;25928;51.062;13.752;2023-05-31T05:53:01;16.40;99.90
816;DHT22;25928;51.062;13.752;2023-05-31T05:55:26;16.50;99.90
816;DHT22;25928;51.062;13.752;2023-05-31T05:57:52;16.60;99.90
816;DHT22;25928;51.062;13.752;2023-05-31T06:00:18;16.70;99.90
816;DHT22;25928;51.062;13.752;2023-05-31T06:02:44;16.80;99.90
816;DHT22;25928;51.062;13.752;2023-05-31T06:05:10;16.90;99.90
816;DHT22;25928;51.062;13.752;2023-05-31T06:07:35;16.90;99.90
816;DHT22;25928;51.062;13.752;2023-05-31T06:10:01;17.00;99.90
816;DHT22;25928;51.062;13.752;2023-05-31T06:12:28;17.10;99.90
816;DHT22;25928;51.062;13.752;2023-05-31T06:14:55;17.20;99.90
816;DHT22;25928;51.062;13.752;2023-05-31T06:17:20;17.20;99.90
816;DHT22;25928;51.062;13.752;2023-05-31T06:19:46;17.30;99.90
816;DHT22;25928;51.062;13.752;2023-05-31T06:22:12;17.40;99.90
816;DHT22;25928;51.062;13.752;2023-05-31T06:24:37;17.50;99.90
816;DHT22;25928;51.062;13.752;2023-05-31T06:27:03;17.60;99.90
816;DHT22;25928;51.062;13.752;2023-05-31T06:29:30;17.70;99.90
816;DHT22;25928;51.062;13.752;2023-05-31T06:31:56;17.80;99.90
816;DHT22;25928;51.062;13.752;2023-05-31T06:34:21;18.00;99.90
816;DHT22;25928;51.062;13.752;2023-05-31T06:36:47;18.10;99.90
816;DHT22;25928;51.062;13.752;2023-05-31T06:39:12;18.10;99.90
816;DHT22;25928;51.062;13.752;2023-05-31T06:41:38;18.30;99.90
816;DHT22;25928;51.062;13.752;2023-05-31T06:44:04;18.60;99.90
816;DHT22;25928;51.062;13.752;2023-05-31T06:46:30;18.60;99.90
816;DHT22;25928;51.062;13.752;2023-05-31T06:48:55;18.80;99.90
816;DHT22;25928;51.062;13.752;2023-05-31T06:51:21;18.90;99.90
816;DHT22;25928;51.062;13.752;2023-05-31T06:53:49;19.00;99.90
816;DHT22;25928;51.062;13.752;2023-05-31T06:56:15;19.10;99.90
816;DHT22;25928;51.062;13.752;2023-05-31T06:58:41;19.20;99.90
816;DHT22;25928;51.062;13.752;2023-05-31T07:01:07;19.30;99.90
816;DHT22;25928;51.062;13.752;2023-05-31T07:03:33;19.40;99.90
816;DHT22;25928;51.062;13.752;2023-05-31T07:06:00;19.50;99.90
816;DHT22;25928;51.062;13.752;2023-05-31T07:08:25;19.70;99.90
816;DHT22;25928;51.062;13.752;2023-05-31T07:10:51;19.80;99.90
816;DHT22;25928;51.062;13.752;2023-05-31T07:13:17;20.00;99.90
816;DHT22;25928;51.062;13.752;2023-05-31T07:15:42;20.10;99.90
816;DHT22;25928;51.062;13.752;2023-05-31T07:18:08;20.40;99.90
816;DHT22;25928;51.062;13.752;2023-05-31T07:20:34;20.70;99.90
816;DHT22;25928;51.062;13.752;2023-05-31T07:22:59;21.00;99.90
816;DHT22;25928;51.062;13.752;2023-05-31T07:25:25;21.00;99.90
816;DHT22;25928;51.062;13.752;2023-05-31T07:27:51;21.00;99.90
816;DHT22;25928;51.062;13.752;2023-05-31T07:30:16;21.40;99.90
816;DHT22;25928;51.062;13.752;2023-05-31T07:32:42;21.30;99.90
816;DHT22;25928;51.062;13.752;2023-05-31T07:35:08;21.40;99.90
816;DHT22;25928;51.062;13.752;2023-05-31T07:37:33;21.40;99.90
816;DHT22;25928;51.062;13.752;2023-05-31T07:39:59;21.50;99.90
816;DHT22;25928;51.062;13.752;2023-05-31T07:42:25;21.50;99.90
816;DHT22;25928;51.062;13.752;2023-05-31T07:44:52;21.60;99.90
816;DHT22;25928;51.062;13.752;2023-05-31T07:47:18;21.70;99.90
816;DHT22;25928;51.062;13.752;2023-05-31T07:49:45;21.80;99.90
816;DHT22;25928;51.062;13.752;2023-05-31T07:52:11;21.90;99.90
816;DHT22;25928;51.062;13.752;2023-05-31T07:54:37;22.10;99.90
816;DHT22;25928;51.062;13.752;2023-05-31T07:57:02;22.40;99.90
816;DHT22;25928;51.062;13.752;2023-05-31T07:59:29;22.70;99.90
816;DHT22;25928;51.062;13.752;2023-05-31T08:01:54;22.90;99.90
816;DHT22;25928;51.062;13.752;2023-05-31T08:04:20;22.80;99.90
816;DHT22;25928;51.062;13.752;2023-05-31T08:06:46;22.80;99.90
816;DHT22;25928;51.062;13.752;2023-05-31T08:09:11;22.90;99.90
816;DHT22;25928;51.062;13.752;2023-05-31T08:11:37;23.10;99.90
816;DHT22;25928;51.062;13.752;2023-05-31T08:14:04;23.10;99.90
816;DHT22;25928;51.062;13.752;2023-05-31T08:16:30;23.20;99.90
816;DHT22;25928;51.062;13.752;2023-05-31T08:18:56;23.30;99.90
816;DHT22;25928;51.062;13.752;2023-05-31T08:21:22;23.50;99.90
816;DHT22;25928;51.062;13.752;2023-05-31T08:23:48;23.50;99.90
816;DHT22;25928;51.062;13.752;2023-05-31T08:26:13;23.50;99.90
816;DHT22;25928;51.062;13.752;2023-05-31T08:28:39;23.40;99.90
816;DHT22;25928;51.062;13.752;2023-05-31T08:31:06;23.30;99.90
816;DHT22;25928;51.062;13.752;2023-05-31T08:33:32;23.60;99.90
816;DHT22;25928;51.062;13.752;2023-05-31T08:36:01;23.90;99.90
816;DHT22;25928;51.062;13.752;2023-05-31T08:38:30;24.00;99.90
816;DHT22;25928;51.062;13.752;2023-05-31T08:41:01;24.30;99.90
816;DHT22;25928;51.062;13.752;2023-05-31T08:43:28;24.30;99.90
816;DHT22;25928;51.062;13.752;2023-05-31T08:45:54;24.10;99.90
816;DHT22;25928;51.062;13.752;2023-05-31T08:50:56;24.30;99.90
816;DHT22;25928;51.062;13.752;2023-05-31T08:53:26;24.50;99.90
816;DHT22;25928;51.062;13.752;2023-05-31T08:55:53;24.70;99.90
816;DHT22;25928;51.062;13.752;2023-05-31T08:58:19;24.70;99.90
816;DHT22;25928;51.062;13.752;2023-05-31T09:00:45;24.70;99.90
816;DHT22;25928;51.062;13.752;2023-05-31T09:03:12;24.80;99.90
816;DHT22;25928;51.062;13.752;2023-05-31T09:05:38;24.50;99.90
816;DHT22;25928;51.062;13.752;2023-05-31T09:08:04;24.50;99.90
816;DHT22;25928;51.062;13.752;2023-05-31T09:10:30;24.60;99.90
816;DHT22;25928;51.062;13.752;2023-05-31T09:12:56;24.90;99.90
816;DHT22;25928;51.062;13.752;2023-05-31T09:15:23;24.70;99.90
816;DHT22;25928;51.062;13.752;2023-05-31T09:17:50;24.70;99.90
816;DHT22;25928;51.062;13.752;2023-05-31T09:20:17;24.70;99.90
816;DHT22;25928;51.062;13.752;2023-05-31T09:22:46;24.90;99.90
816;DHT22;25928;51.062;13.752;2023-05-31T09:25:12;25.00;99.90
816;DHT22;25928;51.062;13.752;2023-05-31T09:27:39;25.00;99.90
816;DHT22;25928;51.062;13.752;2023-05-31T09:30:13;25.20;99.90
816;DHT22;25928;51.062;13.752;2023-05-31T09:32:39;25.30;99.90
816;DHT22;25928;51.062;13.752;2023-05-31T09:35:13;25.40;99.90
816;DHT22;25928;51.062;13.752;2023-05-31T09:37:49;25.50;99.90
816;DHT22;25928;51.062;13.752;2023-05-31T09:40:29;25.60;99.90
816;DHT22;25928;51.062;13.752;2023-05-31T09:42:55;25.70;99.90
816;DHT22;25928;51.062;13.752;2023-05-31T09:45:21;25.70;99.90
816;DHT22;25928;51.062;13.752;2023-05-31T09:47:48;25.90;99.90
816;DHT22;25928;51.062;13.752;2023-05-31T09:50:19;26.20;99.90
816;DHT22;25928;51.062;13.752;2023-05-31T09:52:47;26.20;99.90
816;DHT22;25928;51.062;13.752;2023-05-31T09:55:15;25.50;99.90
816;DHT22;25928;51.062;13.752;2023-05-31T09:57:42;25.10;99.90
816;DHT22;25928;51.062;13.752;2023-05-31T10:00:09;25.10;99.90
816;DHT22;25928;51.062;13.752;2023-05-31T10:02:52;25.10;99.90
816;DHT22;25928;51.062;13.752;2023-05-31T10:05:20;25.40;99.90
816;DHT22;25928;51.062;13.752;2023-05-31T10:07:48;25.50;99.90
816;DHT22;25928;51.062;13.752;2023-05-31T10:10:14;25.60;99.90
816;DHT22;25928;51.062;13.752;2023-05-31T10:12:57;25.90;99.90
816;DHT22;25928;51.062;13.752;2023-05-31T10:15:26;25.90;99.90
816;DHT22;25928;51.062;13.752;2023-05-31T10:18:00;25.60;99.90
816;DHT22;25928;51.062;13.752;2023-05-31T10:20:46;25.20;99.90
816;DHT22;25928;51.062;13.752;2023-05-31T10:23:24;25.10;99.90
816;DHT22;25928;51.062;13.752;2023-05-31T10:26:13;25.20;99.90
816;DHT22;25928;51.062;13.752;2023-05-31T10:29:13;25.50;99.90
816;DHT22;25928;51.062;13.752;2023-05-31T10:31:50;25.80;99.90
816;DHT22;25928;51.062;13.752;2023-05-31T10:34:21;26.20;99.90
816;DHT22;25928;51.062;13.752;2023-05-31T10:36:49;26.40;99.90
816;DHT22;25928;51.062;13.752;2023-05-31T10:39:26;26.00;99.90
816;DHT22;25928;51.062;13.752;2023-05-31T10:47:35;25.20;99.90
816;DHT22;25928;51.062;13.752;2023-05-31T10:50:03;25.30;99.90
816;DHT22;25928;51.062;13.752;2023-05-31T10:52:30;25.60;99.90
816;DHT22;25928;51.062;13.752;2023-05-31T10:55:18;25.80;99.90
816;DHT22;25928;51.062;13.752;2023-05-31T10:57:49;26.20;99.90
816;DHT22;25928;51.062;13.752;2023-05-31T11:00:19;26.30;99.90
816;DHT22;25928;51.062;13.752;2023-05-31T11:02:47;26.10;99.90
816;DHT22;25928;51.062;13.752;2023-05-31T11:05:24;26.00;99.90
816;DHT22;25928;51.062;13.752;2023-05-31T11:07:52;25.80;99.90
816;DHT22;25928;51.062;13.752;2023-05-31T11:10:25;25.70;99.90
816;DHT22;25928;51.062;13.752;2023-05-31T11:12:50;25.60;99.90
816;DHT22;25928;51.062;13.752;2023-05-31T11:15:16;25.30;99.90
816;DHT22;25928;51.062;13.752;2023-05-31T11:17:52;25.10;99.90
816;DHT22;25928;51.062;13.752;2023-05-31T11:20:19;25.30;99.90
816;DHT22;25928;51.062;13.752;2023-05-31T11:22:46;25.10;99.90
816;DHT22;25928;51.062;13.752;2023-05-31T11:25:19;25.20;99.90
816;DHT22;25928;51.062;13.752;2023-05-31T11:27:47;24.90;99.90
816;DHT22;25928;51.062;13.752;2023-05-31T11:30:15;25.00;99.90
816;DHT22;25928;51.062;13.752;2023-05-31T11:35:09;25.40;99.90
816;DHT22;25928;51.062;13.752;2023-05-31T11:37:37;25.20;99.90
816;DHT22;25928;51.062;13.752;2023-05-31T11:40:08;24.80;99.90
816;DHT22;25928;51.062;13.752;2023-05-31T11:42:38;25.00;99.90
816;DHT22;25928;51.062;13.752;2023-05-31T11:45:14;25.40;99.90
816;DHT22;25928;51.062;13.752;2023-05-31T11:50:31;25.60;99.90
816;DHT22;25928;51.062;13.752;2023-05-31T11:52:56;25.80;99.90
816;DHT22;25928;51.062;13.752;2023-05-31T11:55:30;25.80;99.90
816;DHT22;25928;51.062;13.752;2023-05-31T11:57:58;25.70;99.90
816;DHT22;25928;51.062;13.752;2023-05-31T12:00:24;25.80;99.90
816;DHT22;25928;51.062;13.752;2023-05-31T12:02:55;25.90;99.90
816;DHT22;25928;51.062;13.752;2023-05-31T12:05:24;26.00;99.90
816;DHT22;25928;51.062;13.752;2023-05-31T12:07:55;26.00;99.90
816;DHT22;25928;51.062;13.752;2023-05-31T12:10:24;26.10;99.90
816;DHT22;25928;51.062;13.752;2023-05-31T12:12:50;26.30;99.90
816;DHT22;25928;51.062;13.752;2023-05-31T12:15:16;26.40;99.90
816;DHT22;25928;51.062;13.752;2023-05-31T12:17:42;26.30;99.90
816;DHT22;25928;51.062;13.752;2023-05-31T12:20:09;26.10;99.90
816;DHT22;25928;51.062;13.752;2023-05-31T12:22:35;26.00;99.90
816;DHT22;25928;51.062;13.752;2023-05-31T12:25:01;26.20;99.90
816;DHT22;25928;51.062;13.752;2023-05-31T12:27:28;26.10;99.90
816;DHT22;25928;51.062;13.752;2023-05-31T12:30:00;26.00;99.90
816;DHT22;25928;51.062;13.752;2023-05-31T12:32:27;25.90;99.90
816;DHT22;25928;51.062;13.752;2023-05-31T12:35:07;26.10;99.90
816;DHT22;25928;51.062;13.752;2023-05-31T12:37:35;26.40;99.90
816;DHT22;25928;51.062;13.752;2023-05-31T12:40:14;26.50;99.90
816;DHT22;25928;51.062;13.752;2023-05-31T12:42:41;26.70;99.90
816;DHT22;25928;51.062;13.752;2023-05-31T12:45:08;26.90;99.90
816;DHT22;25928;51.062;13.752;2023-05-31T12:47:35;26.80;99.90
816;DHT22;25928;51.062;13.752;2023-05-31T12:50:06;26.70;99.90
816;DHT22;25928;51.062;13.752;2023-05-31T12:52:38;26.40;99.90
816;DHT22;25928;51.062;13.752;2023-05-31T12:55:05;26.10;99.90
816;DHT22;25928;51.062;13.752;2023-05-31T12:57:32;26.20;99.90
816;DHT22;25928;51.062;13.752;2023-05-31T13:00:05;26.30;99.90
816;DHT22;25928;51.062;13.752;2023-05-31T13:02:35;26.30;99.90
816;DHT22;25928;51.062;13.752;2023-05-31T13:05:01;26.30;99.90
816;DHT22;25928;51.062;13.752;2023-05-31T13:07:27;26.40;99.90
816;DHT22;25928;51.062;13.752;2023-05-31T13:09:52;26.30;99.90
816;DHT22;25928;51.062;13.752;2023-05-31T13:12:19;26.50;99.90
816;DHT22;25928;51.062;13.752;2023-05-31T13:14:46;26.30;99.90
816;DHT22;25928;51.062;13.752;2023-05-31T13:17:12;26.10;99.90
816;DHT22;25928;51.062;13.752;2023-05-31T13:19:38;26.00;99.90
816;DHT22;25928;51.062;13.752;2023-05-31T13:22:04;26.00;99.90
816;DHT22;25928;51.062;13.752;2023-05-31T13:24:29;26.10;99.90
816;DHT22;25928;51.062;13.752;2023-05-31T13:26:55;26.30;99.90
816;DHT22;25928;51.062;13.752;2023-05-31T13:29:21;26.40;99.90
816;DHT22;25928;51.062;13.752;2023-05-31T13:31:50;26.30;99.90
816;DHT22;25928;51.062;13.752;2023-05-31T13:34:17;26.30;99.90
816;DHT22;25928;51.062;13.752;2023-05-31T13:36:43;26.60;99.90
816;DHT22;25928;51.062;13.752;2023-05-31T13:39:12;26.50;99.90
816;DHT22;25928;51.062;13.752;2023-05-31T13:41:39;26.50;99.90
816;DHT22;25928;51.062;13.752;2023-05-31T13:44:04;26.40;99.90
816;DHT22;25928;51.062;13.752;2023-05-31T13:46:30;26.70;99.90
816;DHT22;25928;51.062;13.752;2023-05-31T13:48:56;26.60;99.90
816;DHT22;25928;51.062;13.752;2023-05-31T13:51:21;26.50;99.90
816;DHT22;25928;51.062;13.752;2023-05-31T13:53:47;26.60;99.90
816;DHT22;25928;51.062;13.752;2023-05-31T13:56:12;26.60;99.90
816;DHT22;25928;51.062;13.752;2023-05-31T13:58:38;26.60;99.90
816;DHT22;25928;51.062;13.752;2023-05-31T14:01:05;26.50;99.90
816;DHT22;25928;51.062;13.752;2023-05-31T14:03:32;26.40;99.90
816;DHT22;25928;51.062;13.752;2023-05-31T14:05:58;26.50;99.90
816;DHT22;25928;51.062;13.752;2023-05-31T14:08:24;27.40;99.90
816;DHT22;25928;51.062;13.752;2023-05-31T14:10:49;29.10;99.90
816;DHT22;25928;51.062;13.752;2023-05-31T14:13:15;30.70;99.90
816;DHT22;25928;51.062;13.752;2023-05-31T14:15:40;32.30;99.90
816;DHT22;25928;51.062;13.752;2023-05-31T14:18:07;33.70;99.90
816;DHT22;25928;51.062;13.752;2023-05-31T14:20:33;35.00;99.90
816;DHT22;25928;51.062;13.752;2023-05-31T14:22:59;36.40;99.90
816;DHT22;25928;51.062;13.752;2023-05-31T14:25:25;37.10;99.90
816;DHT22;25928;51.062;13.752;2023-05-31T14:27:50;37.30;99.90
816;DHT22;25928;51.062;13.752;2023-05-31T14:30:16;37.30;99.90
816;DHT22;25928;51.062;13.752;2023-05-31T14:32:41;37.10;99.90
816;DHT22;25928;51.062;13.752;2023-05-31T14:35:08;37.10;99.90
816;DHT22;25928;51.062;13.752;2023-05-31T14:37:35;37.40;99.90
816;DHT22;25928;51.062;13.752;2023-05-31T14:40:01;37.90;99.90
816;DHT22;25928;51.062;13.752;2023-05-31T14:42:26;36.80;99.90
816;DHT22;25928;51.062;13.752;2023-05-31T14:44:52;35.00;99.90
816;DHT22;25928;51.062;13.752;2023-05-31T14:47:18;34.20;99.90
816;DHT22;25928;51.062;13.752;2023-05-31T14:49:43;34.30;99.90
816;DHT22;25928;51.062;13.752;2023-05-31T14:52:09;33.70;99.90
816;DHT22;25928;51.062;13.752;2023-05-31T14:54:35;34.00;99.90
816;DHT22;25928;51.062;13.752;2023-05-31T14:57:01;35.20;99.90
816;DHT22;25928;51.062;13.752;2023-05-31T14:59:31;36.20;99.90
816;DHT22;25928;51.062;13.752;2023-05-31T15:01:56;36.50;99.90
816;DHT22;25928;51.062;13.752;2023-05-31T15:04:26;37.20;99.90
816;DHT22;25928;51.062;13.752;2023-05-31T15:06:52;38.70;99.90
816;DHT22;25928;51.062;13.752;2023-05-31T15:09:18;39.30;99.90
816;DHT22;25928;51.062;13.752;2023-05-31T15:11:45;39.30;99.90
816;DHT22;25928;51.062;13.752;2023-05-31T15:14:12;39.10;99.90
816;DHT22;25928;51.062;13.752;2023-05-31T15:16:38;39.10;99.90
816;DHT22;25928;51.062;13.752;2023-05-31T15:19:03;39.20;99.90
816;DHT22;25928;51.062;13.752;2023-05-31T15:21:29;39.30;99.90
816;DHT22;25928;51.062;13.752;2023-05-31T15:23:56;38.90;99.90
816;DHT22;25928;51.062;13.752;2023-05-31T15:26:22;38.70;99.90
816;DHT22;25928;51.062;13.752;2023-05-31T15:28:49;39.10;99.90
816;DHT22;25928;51.062;13.752;2023-05-31T15:31:14;39.10;99.90
816;DHT22;25928;51.062;13.752;2023-05-31T15:33:40;38.90;99.90
816;DHT22;25928;51.062;13.752;2023-05-31T15:36:07;38.60;99.90
816;DHT22;25928;51.062;13.752;2023-05-31T15:38:34;38.30;99.90
816;DHT22;25928;51.062;13.752;2023-05-31T15:41:00;37.60;99.90
816;DHT22;25928;51.062;13.752;2023-05-31T15:43:27;37.20;99.90
816;DHT22;25928;51.062;13.752;2023-05-31T15:45:53;37.60;99.90
816;DHT22;25928;51.062;13.752;2023-05-31T15:48:20;37.70;99.90
816;DHT22;25928;51.062;13.752;2023-05-31T15:50:46;38.40;99.90
816;DHT22;25928;51.062;13.752;2023-05-31T15:53:12;37.60;99.90
816;DHT22;25928;51.062;13.752;2023-05-31T15:55:37;37.10;99.90
816;DHT22;25928;51.062;13.752;2023-05-31T15:58:03;37.30;99.90
816;DHT22;25928;51.062;13.752;2023-05-31T16:00:30;37.90;99.90